Time;durP1;ratioP1;P1;durP2;ratioP2;P2;SDS_P1;SDS_P2;PMS_P1;PMS_P2;Temp;Humidity;BMP_temperature;BMP_pressure;BME280_temperature;BME280_humidity;BME280_pressure;Samples;Min_cycle;Max_cycle;Signal;HPM_P1;HPM_P2
2023/03/22 00:02:03;;;;;;;18.55;11.18;;;6.30;99.90;;;;;;5034448;28;20035;-86
2023/03/22 00:04:29;;;;;;;19.00;11.40;;;6.30;99.90;;;;;;5034800;28;20126;-86
2023/03/22 00:06:55;;;;;;;19.60;12.02;;;6.30;99.90;;;;;;5018434;28;20035;-85
2023/03/22 00:09:21;;;;;;;20.10;11.45;;;6.40;99.90;;;;;;5018295;28;20033;-86
2023/03/22 00:11:49;;;;;;;16.80;11.00;;;6.40;99.90;;;;;;5018693;28;20055;-86
2023/03/22 00:14:18;;;;;;;15.63;10.50;;;6.30;99.90;;;;;;5019243;28;20053;-86
2023/03/22 00:16:45;;;;;;;20.83;11.25;;;6.20;99.90;;;;;;5019423;28;20361;-86
2023/03/22 00:19:20;;;;;;;18.60;11.45;;;6.20;99.90;;;;;;5035306;28;20442;-86
2023/03/22 00:21:45;;;;;;;22.70;10.40;;;6.20;99.90;;;;;;5034832;28;20029;-86
2023/03/22 00:24:29;;;;;;;17.27;10.68;;;6.10;99.90;;;;;;5034959;28;20100;-86
2023/03/22 00:26:55;;;;;;;20.33;10.77;;;6.00;99.90;;;;;;5016322;28;20088;-86
2023/03/22 00:29:22;;;;;;;22.95;12.90;;;5.80;99.90;;;;;;5035329;28;20033;-86
2023/03/22 00:31:50;;;;;;;20.35;12.45;;;5.80;99.90;;;;;;5034860;28;20044;-86
2023/03/22 00:34:16;;;;;;;17.58;12.15;;;5.80;99.90;;;;;;5014749;28;20749;-86
2023/03/22 00:36:42;;;;;;;24.25;12.48;;;5.80;99.90;;;;;;5034304;28;20029;-86
2023/03/22 00:39:08;;;;;;;21.58;12.05;;;5.70;99.90;;;;;;5035058;28;20040;-85
2023/03/22 00:41:33;;;;;;;19.42;13.18;;;5.70;99.90;;;;;;5034615;28;20025;-85
2023/03/22 00:43:59;;;;;;;20.27;12.75;;;5.60;99.90;;;;;;5033971;28;20017;-85
2023/03/22 00:46:25;;;;;;;27.90;14.80;;;5.60;99.90;;;;;;5034868;28;20147;-85
2023/03/22 00:48:52;;;;;;;21.63;13.65;;;5.60;99.90;;;;;;5034419;28;20028;-85
2023/03/22 00:51:17;;;;;;;28.17;14.27;;;5.70;99.90;;;;;;5030080;28;20029;-85
2023/03/22 00:53:48;;;;;;;27.17;15.57;;;5.80;99.90;;;;;;5017670;28;20062;-85
2023/03/22 00:56:14;;;;;;;25.80;14.63;;;5.80;99.90;;;;;;5027525;28;20476;-84
2023/03/22 00:58:45;;;;;;;22.08;14.07;;;5.80;99.90;;;;;;5020365;28;20267;-85
2023/03/22 01:01:12;;;;;;;22.25;13.90;;;5.70;99.90;;;;;;5038215;28;20062;-85
2023/03/22 01:03:39;;;;;;;27.40;15.07;;;5.60;99.90;;;;;;5022144;28;20036;-85
2023/03/22 01:06:05;;;;;;;25.35;14.95;;;5.60;99.90;;;;;;5022312;28;20035;-84
2023/03/22 01:08:31;;;;;;;24.38;15.30;;;5.70;99.90;;;;;;5018840;28;20038;-84
2023/03/22 01:10:58;;;;;;;24.10;14.90;;;5.70;99.90;;;;;;5038691;28;20029;-85
2023/03/22 01:13:24;;;;;;;27.23;16.60;;;5.80;99.90;;;;;;5022428;28;20033;-85
2023/03/22 01:15:50;;;;;;;27.92;15.02;;;5.90;99.90;;;;;;5022174;28;20040;-85
2023/03/22 01:18:16;;;;;;;27.02;15.95;;;6.00;99.90;;;;;;5018423;28;20120;-85
2023/03/22 01:20:42;;;;;;;25.98;15.40;;;6.10;99.90;;;;;;5020836;28;20021;-85
2023/03/22 01:23:08;;;;;;;28.88;16.45;;;6.20;99.90;;;;;;5036803;28;20035;-85
2023/03/22 01:25:35;;;;;;;25.08;14.90;;;6.30;99.90;;;;;;5037697;28;20032;-85
2023/03/22 01:28:01;;;;;;;22.80;15.40;;;6.30;99.90;;;;;;5038495;28;20041;-85
2023/03/22 01:30:28;;;;;;;26.17;16.80;;;6.30;99.90;;;;;;5037654;28;20041;-85
2023/03/22 01:32:54;;;;;;;27.23;16.70;;;6.40;99.90;;;;;;5020983;28;20049;-85
2023/03/22 01:35:19;;;;;;;21.52;14.95;;;6.40;99.90;;;;;;5038074;28;20029;-85
2023/03/22 01:37:45;;;;;;;24.67;16.05;;;6.30;99.90;;;;;;5020967;28;20024;-85
2023/03/22 01:40:12;;;;;;;23.42;15.40;;;6.30;99.90;;;;;;5021235;28;20024;-85
2023/03/22 01:42:39;;;;;;;26.50;14.88;;;6.30;99.90;;;;;;5037543;28;20160;-86
2023/03/22 01:45:14;;;;;;;23.30;14.48;;;6.20;99.90;;;;;;5037728;28;20140;-86
2023/03/22 01:47:48;;;;;;;24.17;14.50;;;6.20;99.90;;;;;;5021470;28;20028;-85
2023/03/22 01:50:15;;;;;;;25.27;13.52;;;6.10;99.90;;;;;;5020886;28;20025;-85
2023/03/22 01:52:41;;;;;;;23.50;15.32;;;6.10;99.90;;;;;;5038035;28;20036;-85
2023/03/22 01:55:13;;;;;;;24.10;15.23;;;6.10;99.90;;;;;;5037201;28;20099;-85
2023/03/22 01:57:44;;;;;;;25.40;15.00;;;6.10;99.90;;;;;;5037801;28;20021;-85
2023/03/22 02:00:17;;;;;;;23.23;13.93;;;6.10;99.90;;;;;;5037876;28;20080;-84
2023/03/22 02:03:06;;;;;;;22.50;13.32;;;6.00;99.90;;;;;;5028090;28;20047;-85
2023/03/22 02:05:39;;;;;;;27.15;14.48;;;5.90;99.90;;;;;;5054730;28;20396;-85
2023/03/22 02:08:07;;;;;;;21.90;13.38;;;5.90;99.90;;;;;;5036829;28;20029;-85
2023/03/22 02:10:50;;;;;;;25.85;13.73;;;5.70;99.90;;;;;;5018311;28;20033;-85
2023/03/22 02:13:37;;;;;;;22.92;13.50;;;5.60;99.90;;;;;;5036677;28;20396;-85
2023/03/22 02:16:52;;;;;;;26.20;15.05;;;5.60;99.90;;;;;;5022727;28;20116;-85
2023/03/22 02:19:41;;;;;;;;;;;5.50;99.90;;;;;;5037154;28;20108;-85
2023/03/22 02:22:27;;;;;;;24.98;15.50;;;5.60;99.90;;;;;;5035254;28;19913;-85
2023/03/22 02:25:24;;;;;;;27.00;15.77;;;5.60;99.90;;;;;;5036661;28;20376;-85
2023/03/22 02:28:04;;;;;;;29.88;17.73;;;5.60;99.90;;;;;;5036533;28;20057;-84
2023/03/22 02:30:57;;;;;;;23.98;15.15;;;5.70;99.90;;;;;;5036942;28;20715;-85
2023/03/22 02:33:45;;;;;;;32.25;18.33;;;5.80;99.90;;;;;;5029514;28;20039;-85
2023/03/22 02:36:10;;;;;;;30.27;16.38;;;6.00;99.90;;;;;;5019301;28;20029;-84
2023/03/22 02:39:05;;;;;;;29.10;17.35;;;6.20;99.90;;;;;;5020174;28;20167;-85
2023/03/22 02:41:57;;;;;;;25.45;16.50;;;6.40;99.90;;;;;;5029786;28;20079;-84
2023/03/22 02:44:35;;;;;;;30.50;16.17;;;6.50;99.90;;;;;;5036715;28;20037;-86
2023/03/22 02:47:06;;;;;;;27.00;16.05;;;6.60;99.90;;;;;;5036389;28;20052;-85
2023/03/22 02:49:38;;;;;;;28.60;14.30;;;6.60;99.90;;;;;;5036009;28;20117;-85
2023/03/22 02:52:17;;;;;;;25.83;15.13;;;6.70;99.90;;;;;;5053728;28;20033;-85
2023/03/22 02:55:09;;;;;;;24.05;14.25;;;6.70;99.90;;;;;;5036008;28;20036;-85
2023/03/22 02:57:55;;;;;;;22.65;13.90;;;6.80;99.90;;;;;;5019235;28;20028;-85
2023/03/22 03:00:24;;;;;;;21.50;13.15;;;6.80;99.90;;;;;;5019466;28;20025;-85
2023/03/22 03:02:55;;;;;;;22.70;13.80;;;7.00;99.90;;;;;;5016586;28;20408;-85
2023/03/22 03:05:43;;;;;;;19.98;12.40;;;7.10;99.90;;;;;;5036064;28;20041;-85
2023/03/22 03:08:14;;;;;;;21.02;11.25;;;7.30;99.90;;;;;;5035937;28;20025;-85
2023/03/22 03:10:41;;;;;;;22.75;13.82;;;7.30;99.90;;;;;;5035818;28;20039;-85
2023/03/22 03:13:15;;;;;;;22.05;11.23;;;7.40;99.90;;;;;;5035928;28;20056;-85
2023/03/22 03:15:44;;;;;;;17.60;11.38;;;7.50;99.90;;;;;;5016286;28;20033;-85
2023/03/22 03:18:45;;;;;;;18.13;10.63;;;7.50;99.90;;;;;;5034200;28;20021;-85
2023/03/22 03:21:10;;;;;;;21.02;10.60;;;7.50;99.90;;;;;;5017762;28;20053;-85
2023/03/22 03:23:49;;;;;;;18.55;10.55;;;7.70;99.90;;;;;;5019373;28;20060;-85
2023/03/22 03:26:48;;;;;;;20.83;10.70;;;7.70;99.90;;;;;;5019116;28;20043;-85
2023/03/22 03:29:30;;;;;;;27.83;11.38;;;7.70;99.90;;;;;;5019233;28;20035;-85
2023/03/22 03:32:05;;;;;;;17.45;9.68;;;7.80;99.90;;;;;;5032962;28;20025;-85
2023/03/22 03:34:56;;;;;;;16.23;9.73;;;7.80;99.90;;;;;;5035393;28;20509;-84
2023/03/22 03:37:40;;;;;;;17.13;9.40;;;7.80;99.90;;;;;;5019443;28;20483;-84
2023/03/22 03:40:13;;;;;;;13.55;8.35;;;7.80;99.90;;;;;;5049906;28;20025;-85
2023/03/22 03:42:49;;;;;;;15.70;8.93;;;7.80;99.90;;;;;;5018417;28;20029;-85
2023/03/22 03:45:17;;;;;;;14.10;8.40;;;7.80;99.90;;;;;;5018997;28;20033;-84
2023/03/22 03:47:45;;;;;;;21.58;9.40;;;7.90;99.90;;;;;;5035773;28;20025;-84
2023/03/22 03:50:15;;;;;;;13.52;8.48;;;7.90;99.90;;;;;;5017557;28;20396;-84
2023/03/22 03:52:42;;;;;;;20.15;8.32;;;7.80;99.90;;;;;;5026236;28;20043;-85
2023/03/22 03:55:08;;;;;;;20.25;8.70;;;7.80;99.90;;;;;;5025045;28;20026;-86
2023/03/22 03:57:34;;;;;;;13.75;8.70;;;7.80;99.90;;;;;;5018412;28;20040;-85
2023/03/22 04:00:00;;;;;;;13.88;8.15;;;7.90;99.90;;;;;;5042343;28;20056;-85
2023/03/22 04:02:46;;;;;;;14.77;8.30;;;8.00;99.90;;;;;;5051657;28;20037;-86
2023/03/22 04:05:32;;;;;;;17.35;7.90;;;8.00;99.90;;;;;;5038210;28;20033;-85
2023/03/22 04:07:58;;;;;;;13.52;7.38;;;7.90;99.90;;;;;;5035478;28;20040;-85
2023/03/22 04:10:24;;;;;;;14.30;8.35;;;7.80;99.90;;;;;;5018617;28;20029;-86
2023/03/22 04:12:49;;;;;;;14.88;7.22;;;7.70;99.90;;;;;;5018077;28;20155;-85
2023/03/22 04:15:17;;;;;;;13.50;7.25;;;7.60;99.90;;;;;;5018615;28;20036;-85
2023/03/22 04:17:47;;;;;;;11.93;7.07;;;7.60;99.90;;;;;;5018634;28;20018;-85
2023/03/22 04:20:14;;;;;;;12.88;7.25;;;7.60;99.90;;;;;;5019205;28;20116;-85
2023/03/22 04:22:41;;;;;;;14.55;6.95;;;7.50;99.90;;;;;;5018931;28;20028;-85
2023/03/22 04:25:10;;;;;;;13.85;8.20;;;7.50;99.90;;;;;;5018495;28;20025;-85
2023/03/22 04:27:39;;;;;;;11.50;7.45;;;7.50;99.90;;;;;;5034444;28;20024;-86
2023/03/22 04:30:17;;;;;;;15.80;7.13;;;7.50;99.90;;;;;;5032693;28;20424;-86
2023/03/22 04:33:14;;;;;;;16.40;7.70;;;7.50;99.90;;;;;;5054033;28;20056;-85
2023/03/22 04:36:04;;;;;;;14.15;7.85;;;7.50;99.90;;;;;;5041194;28;20048;-85
2023/03/22 04:38:38;;;;;;;16.45;8.95;;;7.50;99.90;;;;;;5023004;28;20063;-86
2023/03/22 04:41:17;;;;;;;16.77;8.73;;;7.40;99.90;;;;;;5021617;28;20031;-85
2023/03/22 04:43:49;;;;;;;24.60;9.73;;;7.40;99.90;;;;;;5039195;28;20029;-86
2023/03/22 04:46:16;;;;;;;16.80;9.88;;;7.40;99.90;;;;;;5022216;28;20128;-84
2023/03/22 04:48:51;;;;;;;19.65;10.15;;;7.50;99.90;;;;;;5024101;28;20071;-85
2023/03/22 04:51:17;;;;;;;18.73;9.63;;;7.50;99.90;;;;;;5022765;28;20361;-86
2023/03/22 04:54:00;;;;;;;15.13;9.63;;;7.50;99.90;;;;;;5024430;28;20029;-85
2023/03/22 04:56:26;;;;;;;20.00;9.77;;;7.50;99.90;;;;;;5038538;28;20112;-85
2023/03/22 04:58:53;;;;;;;16.55;10.48;;;7.50;99.90;;;;;;5039014;28;20075;-86
2023/03/22 05:01:18;;;;;;;13.40;8.85;;;7.50;99.90;;;;;;5021588;28;20029;-85
2023/03/22 05:04:11;;;;;;;16.27;9.38;;;7.60;99.90;;;;;;5022036;28;20021;-85
2023/03/22 05:06:36;;;;;;;18.40;9.75;;;7.60;99.90;;;;;;5038608;28;20040;-86
2023/03/22 05:09:12;;;;;;;18.45;9.30;;;7.60;99.90;;;;;;5023731;28;20017;-85
2023/03/22 05:11:39;;;;;;;17.17;9.75;;;7.60;99.90;;;;;;5021872;28;20039;-85
2023/03/22 05:14:25;;;;;;;16.15;8.93;;;7.60;99.90;;;;;;5026183;28;20037;-86
2023/03/22 05:16:51;;;;;;;15.75;9.43;;;7.60;99.90;;;;;;5022098;28;20025;-86
2023/03/22 05:19:21;;;;;;;14.60;8.82;;;7.70;99.90;;;;;;5038709;28;20021;-85
2023/03/22 05:21:47;;;;;;;15.13;10.18;;;7.70;99.90;;;;;;5021433;28;20025;-85
2023/03/22 05:24:13;;;;;;;13.07;7.60;;;7.70;99.90;;;;;;5012755;28;20053;-86
2023/03/22 05:26:43;;;;;;;13.43;7.80;;;7.70;99.90;;;;;;5019866;28;20029;-87
2023/03/22 05:29:53;;;;;;;19.60;10.30;;;7.70;99.90;;;;;;5022847;28;20025;-87
2023/03/22 05:32:24;;;;;;;13.35;8.23;;;7.70;99.90;;;;;;5021026;28;20056;-87
2023/03/22 05:34:52;;;;;;;12.25;7.70;;;7.70;99.90;;;;;;5022880;28;20089;-87
2023/03/22 05:37:35;;;;;;;12.70;8.13;;;7.70;99.90;;;;;;5021811;28;20060;-87
2023/03/22 05:40:04;;;;;;;14.90;6.88;;;7.70;99.90;;;;;;5019494;28;20025;-87
2023/03/22 05:42:35;;;;;;;10.30;5.97;;;7.70;99.90;;;;;;5021183;28;20033;-87
2023/03/22 05:45:07;;;;;;;11.80;6.03;;;7.70;99.90;;;;;;5021848;28;20440;-87
2023/03/22 05:47:34;;;;;;;12.65;6.25;;;7.70;99.90;;;;;;5035856;28;20026;-86
2023/03/22 05:50:13;;;;;;;14.07;5.97;;;7.70;99.90;;;;;;5036820;28;20017;-87
2023/03/22 05:52:39;;;;;;;10.00;6.10;;;7.60;99.90;;;;;;5038934;28;20788;-87
2023/03/22 05:55:24;;;;;;;9.32;5.85;;;7.70;99.90;;;;;;5029868;28;20052;-87
2023/03/22 05:57:55;;;;;;;14.00;5.05;;;7.60;99.90;;;;;;5020096;28;20144;-87
2023/03/22 06:00:22;;;;;;;12.93;5.70;;;7.50;99.90;;;;;;5021180;28;20064;-86
2023/03/22 06:03:21;;;;;;;9.55;5.65;;;7.50;99.90;;;;;;5042398;28;20029;-87
2023/03/22 06:06:09;;;;;;;13.63;5.80;;;7.40;99.90;;;;;;5038933;28;20380;-86
2023/03/22 06:08:58;;;;;;;12.23;5.93;;;7.40;99.90;;;;;;5023590;28;20069;-86
2023/03/22 06:11:24;;;;;;;13.15;5.72;;;7.40;99.90;;;;;;5000079;28;20443;-87
2023/03/22 06:13:53;;;;;;;10.88;5.57;;;7.50;99.90;;;;;;5028308;28;20554;-87
2023/03/22 06:16:22;;;;;;;11.60;5.15;;;7.60;99.90;;;;;;5029553;28;20088;-87
2023/03/22 06:18:48;;;;;;;9.35;4.85;;;7.90;99.90;;;;;;5003480;28;20034;-87
2023/03/22 06:21:14;;;;;;;11.07;5.32;;;8.00;99.90;;;;;;5029023;28;20025;-87
2023/03/22 06:23:42;;;;;;;8.93;5.00;;;8.00;99.90;;;;;;5008015;28;20030;-86
2023/03/22 06:26:12;;;;;;;9.30;5.00;;;8.00;99.90;;;;;;5027143;28;20025;-88
2023/03/22 06:28:40;;;;;;;12.10;4.80;;;8.00;99.90;;;;;;5029130;28;20101;-87
2023/03/22 06:31:09;;;;;;;11.48;5.10;;;7.90;99.90;;;;;;5023975;28;20283;-87
2023/03/22 06:33:56;;;;;;;7.13;5.03;;;7.80;99.90;;;;;;5014662;28;20645;-87
2023/03/22 06:36:31;;;;;;;10.55;5.07;;;7.70;99.90;;;;;;5022031;28;20024;-87
2023/03/22 06:39:07;;;;;;;11.95;5.25;;;7.70;99.90;;;;;;5032024;28;20389;-87
2023/03/22 06:41:33;;;;;;;10.27;4.95;;;7.80;99.90;;;;;;5013186;28;20047;-88
2023/03/22 06:44:00;;;;;;;12.23;5.28;;;7.80;99.90;;;;;;5020535;28;20084;-87
2023/03/22 06:46:40;;;;;;;10.55;5.28;;;7.90;99.90;;;;;;5023104;28;20175;-87
2023/03/22 06:49:15;;;;;;;7.20;5.10;;;7.90;99.90;;;;;;5021399;28;20523;-86
2023/03/22 06:51:41;;;;;;;13.50;5.15;;;7.90;99.90;;;;;;5045911;28;20021;-86
2023/03/22 06:54:07;;;;;;;8.95;5.38;;;7.90;99.90;;;;;;5037336;28;20024;-87
2023/03/22 06:56:34;;;;;;;9.77;5.35;;;8.00;99.90;;;;;;5017853;28;20469;-87
2023/03/22 06:59:00;;;;;;;7.68;4.30;;;8.00;99.90;;;;;;5020951;28;20040;-87
2023/03/22 07:02:00;;;;;;;11.07;4.97;;;8.10;99.90;;;;;;5037146;28;20079;-86
2023/03/22 07:04:26;;;;;;;9.05;4.95;;;8.20;99.90;;;;;;5053097;28;20029;-87
2023/03/22 07:06:52;;;;;;;12.75;5.10;;;8.20;99.90;;;;;;5037962;28;20024;-87
2023/03/22 07:09:18;;;;;;;10.32;4.32;;;8.30;99.90;;;;;;5021284;28;20037;-87
2023/03/22 07:11:47;;;;;;;11.30;5.10;;;8.40;99.90;;;;;;5020787;28;20029;-86
2023/03/22 07:14:27;;;;;;;9.85;4.60;;;8.50;99.90;;;;;;5020356;28;20029;-87
2023/03/22 07:17:01;;;;;;;7.18;3.78;;;8.60;99.90;;;;;;5021594;28;20021;-86
2023/03/22 07:19:28;;;;;;;10.25;4.60;;;8.90;99.90;;;;;;5019707;28;20022;-87
2023/03/22 07:21:55;;;;;;;11.38;4.85;;;9.10;99.90;;;;;;5036969;28;20025;-86
2023/03/22 07:24:22;;;;;;;5.72;4.15;;;9.20;99.90;;;;;;5019045;28;20041;-87
2023/03/22 07:26:49;;;;;;;9.52;4.15;;;9.40;99.90;;;;;;5020853;28;20048;-87
2023/03/22 07:29:19;;;;;;;13.57;5.25;;;9.50;99.90;;;;;;5020803;28;20029;-87
2023/03/22 07:31:45;;;;;;;8.30;4.10;;;9.50;99.90;;;;;;5018031;28;20388;-87
2023/03/22 07:34:24;;;;;;;7.80;4.15;;;9.60;99.90;;;;;;5022628;28;20065;-87
2023/03/22 07:37:01;;;;;;;10.65;4.60;;;9.50;99.90;;;;;;5022408;28;20025;-87
2023/03/22 07:39:47;;;;;;;14.20;6.60;;;9.50;99.90;;;;;;5039590;28;20024;-87
2023/03/22 07:42:12;;;;;;;8.73;4.78;;;9.70;99.90;;;;;;5037231;28;20380;-87
2023/03/22 07:44:41;;;;;;;12.77;5.20;;;9.80;99.90;;;;;;5029593;28;20056;-86
2023/03/22 07:47:16;;;;;;;14.93;4.65;;;9.90;99.90;;;;;;5038301;28;20423;-87
2023/03/22 07:49:48;;;;;;;;;;;10.00;99.90;;;;;;5021672;28;20036;-87
2023/03/22 07:52:20;;;;;;;11.02;4.40;;;9.90;99.90;;;;;;5036790;28;19923;-87
2023/03/22 07:54:47;;;;;;;8.00;5.28;;;9.80;99.90;;;;;;5037575;28;20502;-87
2023/03/22 07:57:12;;;;;;;11.05;4.60;;;9.80;99.90;;;;;;5035938;28;20029;-87
2023/03/22 07:59:45;;;;;;;11.93;4.82;;;9.90;99.90;;;;;;5038487;28;20059;-92
2023/03/22 08:02:12;;;;;;;7.93;4.57;;;9.90;99.90;;;;;;5038151;28;20021;-91
2023/03/22 08:04:46;;;;;;;12.38;5.63;;;9.70;99.90;;;;;;5031147;28;20025;-92
2023/03/22 08:07:20;;;;;;;12.68;4.90;;;9.70;99.90;;;;;;5071401;28;20031;-92
2023/03/22 08:09:49;;;;;;;7.57;4.65;;;9.40;99.90;;;;;;5042053;28;20041;-92
2023/03/22 08:12:16;;;;;;;10.00;4.72;;;9.30;99.90;;;;;;5023232;28;20025;-92
2023/03/22 08:14:49;;;;;;;9.88;5.03;;;9.10;99.90;;;;;;5058506;28;20047;-91
2023/03/22 08:17:18;;;;;;;7.47;4.47;;;9.20;99.90;;;;;;5043864;28;20028;-92
2023/03/22 08:19:57;;;;;;;7.50;4.60;;;9.20;99.90;;;;;;5038050;28;20128;-92
2023/03/22 08:22:37;;;;;;;10.15;4.82;;;9.20;99.90;;;;;;5026219;28;20034;-92
2023/03/22 08:25:38;;;;;;;10.63;5.03;;;9.30;99.90;;;;;;5061624;28;20029;-92
2023/03/22 08:32:00;;;;;;;7.07;4.57;;;9.60;99.90;;;;;;5012176;28;20049;-93
2023/03/22 08:34:30;;;;;;;15.07;5.15;;;9.80;99.90;;;;;;4999770;28;20042;-92
2023/03/22 08:37:07;;;;;;;8.32;4.50;;;9.90;99.90;;;;;;4995143;28;20101;-92
2023/03/22 08:39:34;;;;;;;6.80;4.18;;;10.00;99.90;;;;;;4981079;28;20022;-92
2023/03/22 08:42:18;;;;;;;7.00;4.20;;;10.20;99.90;;;;;;4999872;28;20026;-92
2023/03/22 08:44:48;;;;;;;8.18;4.15;;;10.40;99.90;;;;;;4995824;28;20026;-90
2023/03/22 08:47:14;;;;;;;7.82;4.15;;;10.60;99.90;;;;;;4976858;28;20018;-92
2023/03/22 08:49:45;;;;;;;7.95;3.70;;;11.40;99.90;;;;;;4987337;28;20035;-91
2023/03/22 08:52:48;;;;;;;5.95;3.83;;;12.10;99.90;;;;;;4992899;28;20509;-90
2023/03/22 08:55:47;;;;;;;9.10;3.85;;;13.20;99.90;;;;;;4979610;28;20049;-91
2023/03/22 08:58:17;;;;;;;6.07;3.70;;;13.10;99.90;;;;;;5006727;28;20034;-91
2023/03/22 09:00:57;;;;;;;9.93;3.75;;;12.70;99.90;;;;;;5042180;28;20017;-90
2023/03/22 09:03:43;;;;;;;11.18;4.35;;;11.90;99.90;;;;;;5045518;28;20037;-91
2023/03/22 09:06:10;;;;;;;5.68;3.60;;;11.60;99.90;;;;;;5037466;28;20034;-91
2023/03/22 09:08:44;;;;;;;6.78;3.45;;;11.40;99.90;;;;;;5058398;28;20033;-92
2023/03/22 09:11:15;;;;;;;9.95;3.67;;;11.70;99.90;;;;;;5053778;28;20025;-91
2023/03/22 09:13:42;;;;;;;7.50;3.72;;;12.00;99.90;;;;;;5037365;28;20053;-93
2023/03/22 09:16:08;;;;;;;10.65;3.50;;;11.90;99.90;;;;;;5039545;28;20032;-91
2023/03/22 09:18:37;;;;;;;11.82;3.75;;;12.10;99.90;;;;;;5038406;28;20021;-93
2023/03/22 09:21:11;;;;;;;10.90;3.30;;;12.30;99.90;;;;;;5043348;28;20009;-91
2023/03/22 09:23:49;;;;;;;6.85;3.10;;;12.30;99.90;;;;;;5039526;28;20498;-91
2023/03/22 09:26:17;;;;;;;5.50;3.60;;;12.40;99.90;;;;;;5051407;28;20053;-92
2023/03/22 09:28:51;;;;;;;7.20;2.90;;;12.40;99.90;;;;;;5052622;28;20483;-91
2023/03/22 09:31:18;;;;;;;5.32;3.60;;;12.60;99.90;;;;;;5037857;28;20033;-92
2023/03/22 09:33:45;;;;;;;8.05;3.50;;;12.60;99.90;;;;;;5034836;28;20495;-91
2023/03/22 09:36:11;;;;;;;6.60;3.10;;;13.00;99.90;;;;;;5047338;28;20025;-91
2023/03/22 09:38:40;;;;;;;6.82;2.65;;;12.90;99.90;;;;;;5038108;28;20036;-92
2023/03/22 09:41:25;;;;;;;12.70;3.30;;;13.00;99.90;;;;;;5038201;28;20117;-91
2023/03/22 09:43:56;;;;;;;5.18;2.90;;;13.20;99.90;;;;;;5030170;28;20100;-92
2023/03/22 09:46:30;;;;;;;7.95;2.47;;;12.80;99.90;;;;;;5025104;28;20033;-91
2023/03/22 09:49:00;;;;;;;5.43;2.78;;;12.50;99.90;;;;;;5054391;28;20032;-90
2023/03/22 09:51:27;;;;;;;;;;;12.30;99.90;;;;;;5052715;28;20087;-92
2023/03/22 09:53:53;;;;;;;3.05;1.88;;;12.30;99.90;;;;;;5033467;28;19913;-92
2023/03/22 09:56:24;;;;;;;3.03;1.63;;;12.40;99.90;;;;;;5053700;28;20044;-92
2023/03/22 09:59:06;;;;;;;11.60;2.15;;;12.50;99.90;;;;;;5030260;28;20382;-91
2023/03/22 10:01:39;;;;;;;5.22;1.30;;;12.70;99.90;;;;;;5032760;28;20030;-91
2023/03/22 10:04:37;;;;;;;3.13;1.50;;;13.40;99.90;;;;;;5038037;28;20029;-91
2023/03/22 10:07:38;;;;;;;4.37;1.13;;;14.30;99.90;;;;;;5030934;28;20056;-91
2023/03/22 10:14:20;;;;;;;3.05;1.35;;;16.00;99.90;;;;;;5069840;28;20119;-90
2023/03/22 10:16:50;;;;;;;4.55;1.20;;;16.30;99.90;;;;;;5025269;28;20037;-93
2023/03/22 10:19:22;;;;;;;4.00;1.00;;;16.40;99.90;;;;;;5035079;28;20085;-93
2023/03/22 10:22:01;;;;;;;4.22;1.30;;;15.90;99.90;;;;;;5071892;28;20048;-91
2023/03/22 10:24:35;;;;;;;6.30;1.00;;;15.70;99.90;;;;;;5035835;28;20184;-91
2023/03/22 10:27:17;;;;;;;3.47;1.33;;;15.60;99.90;;;;;;5067233;28;20025;-91
2023/03/22 10:29:48;;;;;;;2.95;1.40;;;15.80;99.90;;;;;;5051937;28;20025;-93
2023/03/22 10:32:21;;;;;;;3.78;1.38;;;16.10;99.90;;;;;;5051115;28;20036;-92
2023/03/22 10:34:51;;;;;;;2.90;1.40;;;15.70;99.90;;;;;;5068150;28;20033;-91
2023/03/22 10:37:31;;;;;;;2.90;1.30;;;15.00;99.90;;;;;;5051363;28;20029;-91
2023/03/22 10:40:00;;;;;;;2.03;1.30;;;14.80;99.90;;;;;;5030839;28;20029;-91
2023/03/22 10:42:30;;;;;;;13.85;2.38;;;14.40;99.90;;;;;;5051211;28;20075;-93
2023/03/22 10:45:07;;;;;;;2.45;1.40;;;14.30;99.90;;;;;;5053338;28;20039;-91
2023/03/22 10:47:49;;;;;;;1.70;1.30;;;14.60;99.90;;;;;;5043593;28;20032;-91
2023/03/22 10:50:23;;;;;;;1.65;1.10;;;14.80;99.90;;;;;;5051994;28;20025;-91
2023/03/22 10:52:54;;;;;;;4.10;1.33;;;14.50;99.90;;;;;;5038293;28;20040;-90
2023/03/22 10:55:43;;;;;;;3.30;2.00;;;14.20;99.90;;;;;;5049214;28;20025;-90
2023/03/22 10:58:18;;;;;;;2.55;1.42;;;14.40;99.90;;;;;;5035512;28;20120;-91
2023/03/22 11:00:53;;;;;;;1.98;1.55;;;14.60;99.90;;;;;;5037052;28;20021;-91
2023/03/22 11:03:42;;;;;;;5.60;2.15;;;14.60;99.90;;;;;;5052070;28;20032;-90
2023/03/22 11:06:25;;;;;;;4.38;1.92;;;14.30;99.90;;;;;;5047506;28;20411;-91
2023/03/22 11:09:17;;;;;;;3.47;1.83;;;14.10;99.90;;;;;;5036489;28;20035;-90
2023/03/22 11:11:58;;;;;;;4.57;1.77;;;14.10;99.90;;;;;;5036790;28;20043;-90
2023/03/22 11:14:31;;;;;;;4.90;1.90;;;14.10;99.90;;;;;;5031943;28;20097;-90
2023/03/22 11:17:04;;;;;;;5.78;2.03;;;14.10;99.90;;;;;;5052325;28;20044;-92
2023/03/22 11:19:52;;;;;;;4.65;1.63;;;14.30;99.90;;;;;;5025899;28;20049;-91
2023/03/22 11:22:34;;;;;;;3.65;1.80;;;14.50;99.90;;;;;;5046516;28;20032;-91
2023/03/22 11:25:02;;;;;;;9.20;1.88;;;14.60;99.90;;;;;;5031599;28;20021;-90
2023/03/22 11:27:35;;;;;;;3.22;1.70;;;14.70;99.90;;;;;;5034853;28;20033;-90
2023/03/22 11:30:19;;;;;;;2.00;1.60;;;15.00;99.90;;;;;;5033889;28;20025;-91
2023/03/22 11:32:45;;;;;;;6.13;2.25;;;15.50;99.90;;;;;;5036112;28;20032;-90
2023/03/22 11:35:25;;;;;;;2.80;2.03;;;15.80;99.90;;;;;;5051132;28;20025;-90
2023/03/22 11:37:54;;;;;;;6.68;1.92;;;15.50;99.90;;;;;;5036090;28;20033;-91
2023/03/22 11:40:27;;;;;;;3.08;1.52;;;15.20;99.90;;;;;;5031887;28;20037;-91
2023/03/22 11:43:09;;;;;;;3.88;2.00;;;15.00;99.90;;;;;;5016487;28;20028;-85
2023/03/22 11:45:40;;;;;;;3.90;2.00;;;15.30;99.90;;;;;;5034697;28;20029;-86
2023/03/22 11:48:19;;;;;;;5.97;2.50;;;15.60;99.90;;;;;;5016903;28;20467;-86
2023/03/22 11:51:17;;;;;;;4.05;2.28;;;15.80;99.90;;;;;;5020940;28;20029;-86
2023/03/22 11:53:46;;;;;;;5.22;2.00;;;15.30;99.90;;;;;;5020125;28;20033;-86
2023/03/22 11:56:17;;;;;;;4.05;2.40;;;14.80;99.90;;;;;;5038745;28;20028;-87
2023/03/22 11:58:52;;;;;;;2.10;1.73;;;15.10;99.90;;;;;;5018477;28;20025;-84
2023/03/22 12:01:48;;;;;;;8.02;2.00;;;16.00;99.90;;;;;;5017184;28;20034;-87
2023/03/22 12:04:19;;;;;;;9.60;1.52;;;16.40;99.90;;;;;;5031246;28;20033;-86
2023/03/22 12:06:45;;;;;;;2.63;1.83;;;16.40;99.90;;;;;;5036827;28;20029;-86
2023/03/22 12:09:16;;;;;;;3.85;2.17;;;16.90;99.90;;;;;;5017376;28;20433;-87
2023/03/22 12:11:53;;;;;;;4.90;1.75;;;17.20;99.90;;;;;;5053059;28;20456;-86
2023/03/22 12:14:28;;;;;;;5.63;2.90;;;16.60;99.90;;;;;;5019878;28;20037;-87
2023/03/22 12:17:25;;;;;;;6.25;2.85;;;15.90;99.90;;;;;;5019775;28;20052;-86
2023/03/22 12:20:05;;;;;;;3.72;2.35;;;15.60;99.90;;;;;;5019374;28;20021;-86
2023/03/22 12:22:33;;;;;;;4.47;1.92;;;15.80;99.90;;;;;;5017570;28;20018;-87
2023/03/22 12:25:00;;;;;;;3.28;1.90;;;16.40;99.90;;;;;;5036650;28;20025;-86
2023/03/22 12:27:39;;;;;;;3.58;1.73;;;16.70;99.90;;;;;;5036758;28;20033;-87
2023/03/22 12:30:21;;;;;;;9.30;1.88;;;16.50;99.90;;;;;;5030053;28;20025;-87
2023/03/22 12:33:27;;;;;;;4.20;1.90;;;16.90;99.90;;;;;;5019488;28;20082;-86
2023/03/22 12:36:04;;;;;;;2.75;1.75;;;17.50;99.90;;;;;;5022286;28;20033;-86
2023/03/22 12:38:38;;;;;;;3.85;2.20;;;18.10;99.90;;;;;;5016581;28;20116;-87
2023/03/22 12:41:11;;;;;;;7.15;1.80;;;17.90;99.90;;;;;;5035409;28;20029;-86
2023/03/22 12:43:40;;;;;;;5.50;1.70;;;17.30;99.90;;;;;;5017914;28;20037;-87
2023/03/22 12:46:13;;;;;;;4.15;1.70;;;17.00;99.90;;;;;;5035293;28;20421;-87
2023/03/22 12:48:47;;;;;;;2.30;1.50;;;16.80;99.90;;;;;;5019957;28;20387;-87
2023/03/22 12:51:14;;;;;;;2.58;1.60;;;16.80;99.90;;;;;;5030792;28;20065;-87
2023/03/22 12:53:45;;;;;;;2.85;1.40;;;17.00;99.90;;;;;;5020881;28;20120;-87
2023/03/22 12:56:14;;;;;;;4.07;1.45;;;16.80;99.90;;;;;;5020238;28;20053;-86
2023/03/22 12:58:45;;;;;;;4.57;1.55;;;17.00;99.90;;;;;;5023795;28;20415;-86
2023/03/22 13:01:18;;;;;;;4.28;1.88;;;17.00;99.90;;;;;;5039574;28;20036;-86
2023/03/22 13:08:22;;;;;;;7.43;1.75;;;17.00;99.90;;;;;;5054797;28;20052;-86
2023/03/22 13:11:20;;;;;;;3.30;1.70;;;17.60;99.90;;;;;;5020612;28;20033;-85
2023/03/22 13:13:46;;;;;;;7.47;1.73;;;17.40;99.90;;;;;;5022796;28;20035;-86
2023/03/22 13:16:15;;;;;;;3.67;1.70;;;16.80;99.90;;;;;;5023004;28;20016;-85
2023/03/22 13:18:41;;;;;;;5.85;2.25;;;16.20;99.90;;;;;;5039521;28;20423;-86
2023/03/22 13:21:28;;;;;;;7.30;1.65;;;16.00;99.90;;;;;;5039153;28;20025;-84
2023/03/22 13:24:00;;;;;;;6.47;1.95;;;15.90;99.90;;;;;;5022418;28;20037;-86
2023/03/22 13:26:46;;;;;;;3.03;1.63;;;15.80;99.90;;;;;;5039198;28;20032;-86
2023/03/22 13:29:37;;;;;;;4.15;1.45;;;16.10;99.90;;;;;;5039136;28;20379;-86
2023/03/22 13:32:33;;;;;;;7.07;1.80;;;16.40;99.90;;;;;;5039652;28;20071;-86
2023/03/22 13:34:59;;;;;;;6.47;1.65;;;16.50;99.90;;;;;;5010471;28;20068;-85